createdAt,value
2019-02-21T00:02:04.947Z,4.60
2019-02-21T00:04:34.216Z,4.50
2019-02-21T00:07:03.448Z,4.50
2019-02-21T00:09:32.778Z,4.50
2019-02-21T00:12:02.618Z,4.50
2019-02-21T00:14:31.963Z,4.50
2019-02-21T00:17:01.190Z,4.50
2019-02-21T00:19:30.478Z,4.50
2019-02-21T00:21:59.712Z,4.40
2019-02-21T00:24:29.042Z,4.30
2019-02-21T00:26:58.207Z,4.30
2019-02-21T00:29:27.466Z,4.20
2019-02-21T00:31:56.625Z,4.20
2019-02-21T00:34:25.884Z,4.20
2019-02-21T00:36:55.043Z,4.10
2019-02-21T00:39:24.238Z,4.10
2019-02-21T00:41:53.417Z,4.00
2019-02-21T00:44:22.603Z,4.00
2019-02-21T00:46:51.776Z,4.00
2019-02-21T00:49:21.007Z,3.90
2019-02-21T00:51:50.324Z,3.90
2019-02-21T00:54:19.580Z,3.80
2019-02-21T00:56:48.939Z,3.80
2019-02-21T00:59:18.223Z,3.80
2019-02-21T01:01:47.408Z,3.70
2019-02-21T01:04:16.647Z,3.80
2019-02-21T01:06:45.922Z,3.70
2019-02-21T01:09:15.278Z,3.70
2019-02-21T01:11:44.463Z,3.60
2019-02-21T01:14:13.632Z,3.60
2019-02-21T01:16:42.902Z,3.60
2019-02-21T01:19:12.263Z,3.50
2019-02-21T01:21:41.577Z,3.50
2019-02-21T01:24:11.351Z,3.50
2019-02-21T01:26:40.535Z,3.60
2019-02-21T01:29:09.812Z,3.60
2019-02-21T01:31:39.087Z,3.60
2019-02-21T01:34:08.249Z,3.60
2019-02-21T01:36:37.588Z,3.60
2019-02-21T01:39:07.403Z,3.60
2019-02-21T01:41:36.687Z,3.60
2019-02-21T01:44:06.080Z,3.70
2019-02-21T01:46:35.346Z,3.70
2019-02-21T01:49:04.578Z,3.80
2019-02-21T01:51:33.793Z,3.80
2019-02-21T01:54:03.035Z,3.80
2019-02-21T01:56:32.464Z,3.80
2019-02-21T01:59:01.703Z,3.80
2019-02-21T02:01:30.956Z,3.80
2019-02-21T02:04:00.276Z,3.90
2019-02-21T02:06:29.684Z,3.80
2019-02-21T02:08:58.868Z,3.90
2019-02-21T02:11:28.032Z,3.90
2019-02-21T02:13:57.372Z,3.90
2019-02-21T02:16:26.617Z,3.80
2019-02-21T02:18:55.878Z,3.80
2019-02-21T02:21:25.048Z,3.80
2019-02-21T02:23:54.239Z,3.70
2019-02-21T02:26:23.467Z,3.70
2019-02-21T02:28:52.718Z,3.70
2019-02-21T02:31:23.685Z,3.60
2019-02-21T02:33:52.958Z,3.60
2019-02-21T02:36:22.115Z,3.60
2019-02-21T02:38:51.385Z,3.50
2019-02-21T02:41:20.680Z,3.60
2019-02-21T02:43:49.980Z,3.50
2019-02-21T02:46:19.215Z,3.50
2019-02-21T02:48:48.409Z,3.40
2019-02-21T02:51:17.668Z,3.40
2019-02-21T02:53:46.928Z,3.30
2019-02-21T02:56:16.198Z,3.30
2019-02-21T02:58:45.828Z,3.40
2019-02-21T03:01:15.173Z,3.30
2019-02-21T03:03:44.334Z,3.30
2019-02-21T03:06:13.674Z,3.30
2019-02-21T03:08:42.974Z,3.30
2019-02-21T03:11:12.310Z,3.30
2019-02-21T03:13:41.552Z,3.20
2019-02-21T03:16:10.902Z,3.20
2019-02-21T03:18:40.219Z,3.20
2019-02-21T03:21:09.559Z,3.20
2019-02-21T03:23:38.715Z,3.10
2019-02-21T03:26:07.991Z,3.10
2019-02-21T03:28:37.231Z,3.10
2019-02-21T03:31:06.518Z,3.10
2019-02-21T03:33:35.781Z,3.10
2019-02-21T03:36:05.068Z,3.10
2019-02-21T03:38:35.382Z,3.00
2019-02-21T03:41:05.143Z,3.00
2019-02-21T03:43:34.451Z,3.10
2019-02-21T03:46:03.717Z,3.10
2019-02-21T03:48:33.004Z,3.10
2019-02-21T03:51:02.303Z,3.10
2019-02-21T03:53:31.637Z,3.00
2019-02-21T03:56:00.896Z,3.00
2019-02-21T03:58:30.133Z,2.90
2019-02-21T04:00:59.400Z,2.90
2019-02-21T04:03:28.628Z,2.90
2019-02-21T04:05:57.799Z,2.90
2019-02-21T04:08:27.223Z,2.80
2019-02-21T04:10:56.525Z,2.80
2019-02-21T04:13:25.793Z,2.80
2019-02-21T04:15:55.100Z,2.70
2019-02-21T04:18:24.352Z,2.70
2019-02-21T04:20:53.518Z,2.70
2019-02-21T04:23:22.690Z,2.60
2019-02-21T04:25:51.928Z,2.60
2019-02-21T04:28:21.279Z,2.60
2019-02-21T04:30:50.522Z,2.60
2019-02-21T04:33:19.789Z,2.60
2019-02-21T04:35:49.104Z,2.60
2019-02-21T04:38:18.381Z,2.60
2019-02-21T04:40:47.700Z,2.50
2019-02-21T04:43:17.029Z,2.50
2019-02-21T04:45:46.364Z,2.50
2019-02-21T04:48:15.709Z,2.50
2019-02-21T04:50:44.887Z,2.50
2019-02-21T04:53:15.277Z,2.40
2019-02-21T04:55:44.597Z,2.50
2019-02-21T04:58:13.860Z,2.50
2019-02-21T05:00:43.107Z,2.50
2019-02-21T05:03:12.292Z,2.50
2019-02-21T05:05:41.530Z,2.50
2019-02-21T05:08:10.715Z,2.50
2019-02-21T05:10:39.892Z,2.50
2019-02-21T05:13:09.147Z,2.50
2019-02-21T05:15:38.562Z,2.50
2019-02-21T05:18:07.827Z,2.60
2019-02-21T05:20:37.054Z,2.60
2019-02-21T05:23:06.290Z,2.60
2019-02-21T05:25:35.548Z,2.70
2019-02-21T05:28:22.474Z,2.70
2019-02-21T05:30:53.487Z,2.70
2019-02-21T05:33:57.182Z,2.80
2019-02-21T05:36:48.444Z,2.80
2019-02-21T05:39:27.254Z,2.90
2019-02-21T05:42:14.254Z,2.90
2019-02-21T05:44:48.800Z,3.00
2019-02-21T05:47:37.837Z,3.00
2019-02-21T05:50:24.790Z,3.00
2019-02-21T05:53:24.971Z,3.00
2019-02-21T05:56:11.499Z,3.10
2019-02-21T05:58:59.211Z,3.10
2019-02-21T06:01:46.450Z,3.10
2019-02-21T06:04:22.279Z,3.20
2019-02-21T06:07:28.727Z,3.20
2019-02-21T06:10:09.847Z,3.20
2019-02-21T06:12:48.338Z,3.20
2019-02-21T06:15:42.470Z,3.30
2019-02-21T06:18:25.943Z,3.30
2019-02-21T06:21:15.357Z,3.40
2019-02-21T06:23:52.406Z,3.40
2019-02-21T06:26:55.836Z,3.40
2019-02-21T06:29:29.099Z,3.40
2019-02-21T06:31:58.427Z,3.40
2019-02-21T06:34:27.718Z,3.40
2019-02-21T06:36:56.911Z,3.50
2019-02-21T06:39:26.069Z,3.50
2019-02-21T06:41:59.763Z,3.50
2019-02-21T06:44:26.227Z,3.50
2019-02-21T06:46:55.518Z,3.60
2019-02-21T06:49:32.097Z,3.60
2019-02-21T06:51:55.752Z,3.70
2019-02-21T06:54:24.930Z,3.70
2019-02-21T06:56:54.248Z,3.70
2019-02-21T06:59:23.811Z,3.70
2019-02-21T07:01:53.200Z,3.70
2019-02-21T07:04:22.433Z,3.80
2019-02-21T07:06:51.796Z,3.80
2019-02-21T07:09:21.040Z,3.80
2019-02-21T07:11:50.614Z,3.80
2019-02-21T07:14:19.861Z,3.90
2019-02-21T07:16:49.087Z,3.90
2019-02-21T07:19:18.350Z,3.90
2019-02-21T07:21:47.570Z,4.00
2019-02-21T07:24:18.173Z,4.00
2019-02-21T07:26:47.507Z,4.00
2019-02-21T07:29:16.775Z,4.00
2019-02-21T07:31:46.011Z,4.10
2019-02-21T07:34:15.200Z,4.10
2019-02-21T07:36:44.441Z,4.10
2019-02-21T07:39:17.439Z,4.20
2019-02-21T07:41:44.584Z,4.10
2019-02-21T07:44:13.858Z,4.20
2019-02-21T07:46:43.009Z,4.20
2019-02-21T07:49:12.251Z,4.30
2019-02-21T07:51:41.669Z,4.30
2019-02-21T07:54:10.964Z,4.30
2019-02-21T07:56:42.306Z,4.40
2019-02-21T07:59:12.134Z,4.40
2019-02-21T08:01:41.607Z,4.50
2019-02-21T08:04:10.791Z,4.60
2019-02-21T08:06:40.020Z,4.60
2019-02-21T08:09:09.617Z,4.70
2019-02-21T08:11:38.848Z,4.70
2019-02-21T08:14:08.107Z,4.80
2019-02-21T08:16:37.337Z,4.80
2019-02-21T08:19:06.613Z,4.90
2019-02-21T08:21:35.948Z,4.90
2019-02-21T08:24:05.247Z,4.90
2019-02-21T08:26:34.509Z,4.90
2019-02-21T08:29:06.031Z,5.00
2019-02-21T08:31:34.729Z,5.00
2019-02-21T08:34:10.743Z,5.00
2019-02-21T08:36:39.999Z,5.10
2019-02-21T08:39:10.494Z,5.20
2019-02-21T08:41:39.985Z,5.30
2019-02-21T08:44:09.215Z,5.40
2019-02-21T08:46:38.400Z,5.40
2019-02-21T08:49:07.635Z,5.50
2019-02-21T08:51:36.933Z,5.60
2019-02-21T08:54:06.260Z,5.60
2019-02-21T08:56:35.587Z,5.70
2019-02-21T08:59:04.891Z,5.70
2019-02-21T09:01:34.139Z,5.80
2019-02-21T09:04:10.512Z,5.90
2019-02-21T09:06:34.323Z,5.90
2019-02-21T09:09:04.307Z,5.90
2019-02-21T09:11:33.739Z,6.00
2019-02-21T09:14:02.996Z,6.20
2019-02-21T09:16:32.347Z,6.40
2019-02-21T09:19:01.588Z,6.40
2019-02-21T09:21:30.931Z,6.40
2019-02-21T09:24:00.240Z,6.40
2019-02-21T09:26:29.517Z,6.40
2019-02-21T09:28:58.912Z,6.50
2019-02-21T09:31:28.283Z,6.30
2019-02-21T09:33:57.512Z,6.20
2019-02-21T09:36:26.762Z,6.20
2019-02-21T09:38:55.928Z,6.10
2019-02-21T09:41:25.163Z,6.10
2019-02-21T09:43:54.419Z,6.00
2019-02-21T09:46:23.655Z,6.10
2019-02-21T09:48:52.911Z,6.10
2019-02-21T09:51:22.171Z,6.20
2019-02-21T09:53:51.352Z,6.30
2019-02-21T09:56:30.027Z,6.40
2019-02-21T09:58:51.635Z,6.50
2019-02-21T10:01:20.838Z,6.50
2019-02-21T10:03:50.113Z,6.50
2019-02-21T10:06:19.278Z,6.70
2019-02-21T10:08:48.463Z,6.70
2019-02-21T10:11:17.700Z,6.90
2019-02-21T10:13:46.967Z,6.90
2019-02-21T10:16:16.152Z,7.00
2019-02-21T10:18:45.408Z,7.00
2019-02-21T10:21:14.764Z,7.20
2019-02-21T10:23:44.049Z,7.30
2019-02-21T10:26:13.278Z,7.30
2019-02-21T10:28:44.967Z,7.20
2019-02-21T10:31:13.516Z,7.30
2019-02-21T10:33:46.812Z,7.40
2019-02-21T10:36:13.696Z,7.70
2019-02-21T10:38:42.960Z,8.00
2019-02-21T10:41:12.122Z,8.40
2019-02-21T10:43:41.363Z,8.60
2019-02-21T10:46:10.552Z,8.70
2019-02-21T10:48:39.897Z,8.80
2019-02-21T10:51:09.347Z,8.80
2019-02-21T10:53:38.519Z,8.70
2019-02-21T10:56:07.772Z,8.70
2019-02-21T10:58:37.002Z,8.70
2019-02-21T11:01:06.468Z,8.80
2019-02-21T11:03:35.783Z,9.00
2019-02-21T11:06:05.153Z,9.20
2019-02-21T11:08:34.373Z,9.30
2019-02-21T11:11:03.651Z,9.50
2019-02-21T11:13:32.884Z,9.40
2019-02-21T11:16:02.105Z,9.30
2019-02-21T11:18:31.283Z,9.30
2019-02-21T11:21:00.548Z,9.20
2019-02-21T11:23:29.784Z,9.20
2019-02-21T11:25:59.043Z,9.20
2019-02-21T11:28:28.314Z,9.30
2019-02-21T11:30:57.640Z,9.30
2019-02-21T11:33:26.875Z,9.30
2019-02-21T11:35:56.061Z,9.30
2019-02-21T11:38:25.211Z,9.30
2019-02-21T11:40:54.409Z,9.30
2019-02-21T11:43:23.645Z,9.50
2019-02-21T11:45:55.214Z,9.80
2019-02-21T11:48:23.732Z,10.00
2019-02-21T11:50:53.027Z,10.10
2019-02-21T11:53:22.275Z,10.00
2019-02-21T11:55:51.536Z,10.00
2019-02-21T11:58:20.779Z,10.00
2019-02-21T12:00:50.048Z,10.00
2019-02-21T12:03:21.269Z,10.00
2019-02-21T12:05:50.207Z,10.10
2019-02-21T12:08:19.399Z,10.10
2019-02-21T12:10:50.895Z,10.10
2019-02-21T12:13:19.630Z,10.10
2019-02-21T12:15:48.841Z,10.20
2019-02-21T12:18:18.111Z,10.40
2019-02-21T12:20:47.275Z,10.60
2019-02-21T12:23:17.835Z,10.90
2019-02-21T12:25:48.136Z,11.10
2019-02-21T12:28:17.327Z,11.20
2019-02-21T12:30:47.418Z,11.10
2019-02-21T12:33:16.603Z,11.20
2019-02-21T12:35:45.843Z,11.20
2019-02-21T12:38:15.116Z,11.10
2019-02-21T12:40:44.357Z,11.10
2019-02-21T12:43:13.629Z,11.10
2019-02-21T12:45:42.796Z,11.10
2019-02-21T12:48:11.984Z,11.10
2019-02-21T12:50:44.318Z,11.20
2019-02-21T12:53:12.307Z,11.20
2019-02-21T12:55:41.553Z,11.30
2019-02-21T12:58:10.740Z,11.40
2019-02-21T13:00:39.978Z,11.40
2019-02-21T13:03:09.429Z,11.50
2019-02-21T13:05:41.322Z,11.50
2019-02-21T13:08:09.580Z,11.50
2019-02-21T13:10:38.819Z,11.50
2019-02-21T13:13:08.024Z,11.50
2019-02-21T13:15:37.332Z,11.50
2019-02-21T13:18:15.318Z,11.60
2019-02-21T13:20:37.543Z,11.60
2019-02-21T13:23:06.734Z,11.60
2019-02-21T13:25:35.987Z,11.60
2019-02-21T13:28:05.227Z,11.60
2019-02-21T13:30:34.497Z,11.50
2019-02-21T13:33:03.737Z,11.60
2019-02-21T13:35:33.014Z,11.60
2019-02-21T13:38:02.372Z,11.60
2019-02-21T13:40:31.667Z,11.70
2019-02-21T13:43:00.932Z,11.90
2019-02-21T13:45:30.203Z,12.00
2019-02-21T13:47:59.444Z,12.00
2019-02-21T13:50:28.719Z,12.10
2019-02-21T13:52:58.070Z,12.00
2019-02-21T13:55:27.351Z,12.00
2019-02-21T13:57:56.651Z,12.00
2019-02-21T14:00:25.920Z,12.00
2019-02-21T14:02:55.153Z,12.10
2019-02-21T14:05:24.452Z,12.10
2019-02-21T14:07:53.833Z,12.00
2019-02-21T14:10:23.096Z,11.90
2019-02-21T14:12:52.337Z,11.90
2019-02-21T14:15:23.199Z,11.90
2019-02-21T14:17:52.471Z,11.80
2019-02-21T14:20:21.814Z,11.80
2019-02-21T14:22:51.051Z,11.70
2019-02-21T14:25:20.387Z,11.60
2019-02-21T14:27:49.628Z,11.60
2019-02-21T14:30:19.016Z,11.60
2019-02-21T14:32:48.179Z,11.60
2019-02-21T14:35:17.845Z,11.50
2019-02-21T14:37:47.174Z,11.50
2019-02-21T14:40:16.439Z,11.40
2019-02-21T14:42:45.636Z,11.40
2019-02-21T14:45:16.336Z,11.40
2019-02-21T14:47:45.664Z,11.50
2019-02-21T14:50:16.273Z,11.50
2019-02-21T14:52:45.523Z,11.40
2019-02-21T14:55:15.241Z,11.50
2019-02-21T14:57:44.587Z,11.40
2019-02-21T15:00:18.893Z,11.40
2019-02-21T15:02:48.352Z,11.40
2019-02-21T15:05:18.476Z,11.40
2019-02-21T15:07:47.835Z,11.40
2019-02-21T15:10:17.282Z,11.40
2019-02-21T15:12:46.616Z,11.40
2019-02-21T15:15:16.720Z,11.30
2019-02-21T15:17:46.793Z,11.30
2019-02-21T15:20:16.934Z,11.30
2019-02-21T15:22:46.270Z,11.30
2019-02-21T15:25:15.584Z,11.30
2019-02-21T15:27:44.881Z,11.30
2019-02-21T15:30:16.082Z,11.30
2019-02-21T15:32:45.411Z,11.20
2019-02-21T15:35:14.843Z,11.30
2019-02-21T15:37:45.032Z,11.30
2019-02-21T15:40:14.849Z,11.30
2019-02-21T15:42:44.188Z,11.30
2019-02-21T15:45:22.892Z,11.30
2019-02-21T15:47:46.759Z,11.30
2019-02-21T15:50:16.054Z,11.30
2019-02-21T15:52:45.477Z,11.30
2019-02-21T15:55:15.327Z,11.30
2019-02-21T15:57:44.690Z,11.30
2019-02-21T16:00:16.270Z,11.30
2019-02-21T16:02:45.555Z,11.30
2019-02-21T16:05:14.725Z,11.20
2019-02-21T16:07:44.123Z,11.10
2019-02-21T16:10:15.610Z,11.00
2019-02-21T16:12:45.240Z,11.00
2019-02-21T16:15:16.433Z,10.90
2019-02-21T16:17:45.840Z,10.90
2019-02-21T16:20:15.444Z,10.90
2019-02-21T16:22:45.049Z,10.90
2019-02-21T16:25:16.530Z,10.90
2019-02-21T16:27:45.883Z,10.80
2019-02-21T16:30:15.616Z,10.80
2019-02-21T16:32:45.028Z,10.80
2019-02-21T16:35:14.276Z,10.80
2019-02-21T16:37:43.502Z,10.80
2019-02-21T16:40:13.584Z,10.70
2019-02-21T16:42:42.776Z,10.70
2019-02-21T16:45:13.126Z,10.70
2019-02-21T16:47:42.295Z,10.60
2019-02-21T16:50:12.562Z,10.50
2019-02-21T16:52:41.783Z,10.50
2019-02-21T16:55:13.286Z,10.40
2019-02-21T16:57:42.445Z,10.50
2019-02-21T17:00:12.804Z,10.50
2019-02-21T17:02:42.052Z,10.40
2019-02-21T17:05:11.759Z,10.40
2019-02-21T17:07:41.073Z,10.40
2019-02-21T17:10:10.931Z,10.40
2019-02-21T17:12:40.176Z,10.40
2019-02-21T17:15:10.830Z,10.40
2019-02-21T17:17:40.145Z,10.40
2019-02-21T17:20:11.266Z,10.40
2019-02-21T17:22:40.435Z,10.40
2019-02-21T17:25:10.520Z,10.30
2019-02-21T17:27:39.679Z,10.30
2019-02-21T17:30:10.036Z,10.40
2019-02-21T17:32:39.286Z,10.30
2019-02-21T17:35:08.723Z,10.30
2019-02-21T17:37:37.973Z,10.30
2019-02-21T17:40:09.320Z,10.30
2019-02-21T17:42:38.492Z,10.20
2019-02-21T17:45:08.567Z,10.10
2019-02-21T17:47:37.799Z,9.90
2019-02-21T17:50:08.020Z,9.80
2019-02-21T17:52:37.297Z,9.70
2019-02-21T17:55:07.092Z,9.60
2019-02-21T17:57:37.016Z,9.50
2019-02-21T18:00:09.353Z,9.40
2019-02-21T18:02:38.620Z,9.30
2019-02-21T18:05:08.389Z,9.20
2019-02-21T18:07:37.596Z,9.20
2019-02-21T18:10:08.826Z,9.20
2019-02-21T18:12:38.094Z,9.20
2019-02-21T18:15:07.945Z,9.30
2019-02-21T18:17:37.141Z,9.20
2019-02-21T18:20:07.128Z,9.20
2019-02-21T18:22:36.448Z,9.10
2019-02-21T18:25:08.378Z,9.00
2019-02-21T18:27:37.718Z,9.00
2019-02-21T18:30:08.237Z,9.00
2019-02-21T18:32:37.552Z,9.00
2019-02-21T18:35:07.318Z,9.10
2019-02-21T18:37:46.644Z,9.10
2019-02-21T18:40:16.992Z,9.20
2019-02-21T18:42:40.512Z,9.20
2019-02-21T18:45:10.083Z,9.30
2019-02-21T18:47:39.340Z,9.30
2019-02-21T18:50:09.568Z,9.30
2019-02-21T18:52:38.996Z,9.40
2019-02-21T18:55:08.263Z,9.40
2019-02-21T18:57:37.914Z,9.40
2019-02-21T19:00:09.330Z,9.50
2019-02-21T19:02:38.691Z,9.50
2019-02-21T19:05:08.188Z,9.50
2019-02-21T19:07:37.377Z,9.60
2019-02-21T19:10:08.376Z,9.60
2019-02-21T19:12:37.630Z,9.60
2019-02-21T19:15:07.731Z,9.60
2019-02-21T19:17:37.481Z,9.60
2019-02-21T19:20:08.530Z,9.60
2019-02-21T19:22:38.217Z,9.60
2019-02-21T19:25:09.049Z,9.60
2019-02-21T19:27:38.695Z,9.50
2019-02-21T19:30:13.912Z,9.50
2019-02-21T19:32:43.628Z,9.50
2019-02-21T19:35:13.149Z,9.50
2019-02-21T19:37:42.595Z,9.50
2019-02-21T19:40:12.480Z,9.50
2019-02-21T19:42:41.953Z,9.50
2019-02-21T19:45:11.698Z,9.50
2019-02-21T19:47:41.145Z,9.50
2019-02-21T19:50:10.864Z,9.50
2019-02-21T19:52:40.641Z,9.50
2019-02-21T19:55:10.566Z,9.50
2019-02-21T19:57:40.204Z,9.50
2019-02-21T20:00:12.445Z,9.50
2019-02-21T20:02:42.277Z,9.50
2019-02-21T20:05:12.218Z,9.50
2019-02-21T20:07:41.852Z,9.50
2019-02-21T20:10:11.455Z,9.50
2019-02-21T20:12:41.192Z,9.50
2019-02-21T20:15:10.989Z,9.50
2019-02-21T20:17:40.712Z,9.50
2019-02-21T20:20:11.323Z,9.40
2019-02-21T20:22:41.103Z,9.40
2019-02-21T20:25:11.154Z,9.40
2019-02-21T20:27:40.858Z,9.40
2019-02-21T20:30:12.764Z,9.40
2019-02-21T20:32:42.913Z,9.40
2019-02-21T20:35:12.823Z,9.40
2019-02-21T20:37:42.652Z,9.40
2019-02-21T20:40:12.360Z,9.50
2019-02-21T20:42:42.124Z,9.50
2019-02-21T20:45:11.407Z,9.40
2019-02-21T20:47:40.782Z,9.40
2019-02-21T20:50:10.239Z,9.40
2019-02-21T20:52:39.530Z,9.50
2019-02-21T20:55:09.031Z,9.50
2019-02-21T20:57:38.300Z,9.50
2019-02-21T21:00:09.302Z,9.50
2019-02-21T21:02:38.488Z,9.50
2019-02-21T21:05:07.838Z,9.50
2019-02-21T21:07:37.028Z,9.50
2019-02-21T21:10:09.208Z,9.50
2019-02-21T21:12:38.383Z,9.50
2019-02-21T21:15:09.601Z,9.40
2019-02-21T21:17:39.007Z,9.50
2019-02-21T21:20:16.678Z,9.50
2019-02-21T21:22:40.522Z,9.50
2019-02-21T21:25:11.506Z,9.50
2019-02-21T21:27:40.772Z,9.50
2019-02-21T21:30:11.843Z,9.50
2019-02-21T21:32:41.127Z,9.50
2019-02-21T21:35:10.644Z,9.50
2019-02-21T21:37:39.984Z,9.50
2019-02-21T21:40:11.287Z,9.50
2019-02-21T21:42:40.567Z,9.50
2019-02-21T21:45:12.468Z,9.50
2019-02-21T21:47:41.987Z,9.50
2019-02-21T21:50:12.698Z,9.50
2019-02-21T21:52:41.959Z,9.50
2019-02-21T21:55:11.215Z,9.50
2019-02-21T21:57:40.367Z,9.60
2019-02-21T22:00:13.187Z,9.50
2019-02-21T22:02:42.502Z,9.50
2019-02-21T22:05:11.764Z,9.50
2019-02-21T22:07:40.999Z,9.50
2019-02-21T22:10:11.473Z,9.50
2019-02-21T22:12:40.775Z,9.50
2019-02-21T22:15:10.812Z,9.50
2019-02-21T22:17:42.111Z,9.50
2019-02-21T22:20:11.029Z,9.50
2019-02-21T22:22:40.182Z,9.50
2019-02-21T22:25:10.258Z,9.50
2019-02-21T22:27:39.547Z,9.50
2019-02-21T22:30:10.628Z,9.40
2019-02-21T22:32:39.783Z,9.40
2019-02-21T22:35:08.987Z,9.40
2019-02-21T22:37:38.220Z,9.40
2019-02-21T22:40:09.430Z,9.50
2019-02-21T22:42:38.748Z,9.50
2019-02-21T22:45:08.558Z,9.40
2019-02-21T22:47:37.812Z,9.40
2019-02-21T22:50:09.091Z,9.40
2019-02-21T22:52:38.279Z,9.50
2019-02-21T22:55:10.146Z,9.50
2019-02-21T22:57:39.229Z,9.50
2019-02-21T23:01:01.662Z,9.50
2019-02-21T23:03:37.203Z,9.50
2019-02-21T23:06:32.563Z,9.50
2019-02-21T23:09:01.899Z,9.50
2019-02-21T23:11:31.168Z,9.50
2019-02-21T23:14:00.403Z,9.50
2019-02-21T23:16:29.618Z,9.50
2019-02-21T23:18:58.919Z,9.50
2019-02-21T23:21:28.114Z,9.50
2019-02-21T23:23:57.345Z,9.40
2019-02-21T23:26:28.585Z,9.40
2019-02-21T23:28:57.500Z,9.50
2019-02-21T23:31:26.761Z,9.40
2019-02-21T23:33:58.163Z,9.40
2019-02-21T23:36:27.419Z,9.50
2019-02-21T23:38:56.572Z,9.50
2019-02-21T23:41:25.832Z,9.50
2019-02-21T23:43:55.071Z,9.40
2019-02-21T23:46:24.339Z,9.50
2019-02-21T23:48:53.580Z,9.50
2019-02-21T23:51:22.852Z,9.50
2019-02-21T23:54:02.533Z,9.40
2019-02-21T23:56:22.986Z,9.40
2019-02-21T23:58:52.244Z,9.40
